KLRO

Mt Pleasant Regional-Faison Field Airport

Mount Pleasant, South Carolina, USA
METAR KLRO 241155Z AUTO 00000KT 6SM BR CLR 15/15 A3026 RMK AO2
Observed Flight Rules
Feb-24 @ 11:55 UTC (28 minutes ago) Visual Flight Rules
Wind Visibility Clouds Conditions
Calm 6 miles
  • Clear skies
  • Mist
Temperatures Readings
Current 15°C / 59°F
Dewpoint 15°C / 59°F
Humidity 100%
Altimeter 30.26" Hg
Pressure 1025 hPa
Elevation 4
METAR KLRO 241155Z AUTO 00000KT 6SM BR CLR 15/15 A3026 RMK AO2
Observed Flight Rules
Feb-24 @ 11:55 UTC
(28 minutes ago)
VFR
Wind Visibility
Calm 6 miles
Clouds
  • Clear skies
Conditions
  • Mist
Temperature Dewpoint
15°C / 59°F 15°C / 59°F
Humidity Altimeter Pressure
100% 30.26" Hg 1025 hPa